sensor_id;sensor_type;location;lat;lon;timestamp;P1;durP1;ratioP1;P2;durP2;ratioP2
55409;SDS011;41279;43.546;16.426;2022-11-24T00:01:03;3.78;;;1.55;;
55409;SDS011;41279;43.546;16.426;2022-11-24T00:03:30;7.80;;;3.72;;
55409;SDS011;41279;43.546;16.426;2022-11-24T00:05:55;2.50;;;1.42;;
55409;SDS011;41279;43.546;16.426;2022-11-24T00:08:21;2.22;;;1.40;;
55409;SDS011;41279;43.546;16.426;2022-11-24T00:10:46;2.17;;;1.27;;
55409;SDS011;41279;43.546;16.426;2022-11-24T00:13:11;6.50;;;2.15;;
55409;SDS011;41279;43.546;16.426;2022-11-24T00:15:37;5.93;;;2.20;;
55409;SDS011;41279;43.546;16.426;2022-11-24T00:18:02;3.70;;;1.80;;
55409;SDS011;41279;43.546;16.426;2022-11-24T00:20:28;2.03;;;1.23;;
55409;SDS011;41279;43.546;16.426;2022-11-24T00:22:53;3.10;;;1.48;;
55409;SDS011;41279;43.546;16.426;2022-11-24T00:25:19;2.45;;;1.40;;
55409;SDS011;41279;43.546;16.426;2022-11-24T00:27:45;3.08;;;1.65;;
55409;SDS011;41279;43.546;16.426;2022-11-24T00:30:10;4.05;;;2.03;;
55409;SDS011;41279;43.546;16.426;2022-11-24T00:32:36;3.88;;;2.00;;
55409;SDS011;41279;43.546;16.426;2022-11-24T00:35:01;2.60;;;1.40;;
55409;SDS011;41279;43.546;16.426;2022-11-24T00:37:27;2.70;;;1.42;;
55409;SDS011;41279;43.546;16.426;2022-11-24T00:39:52;3.20;;;1.58;;
55409;SDS011;41279;43.546;16.426;2022-11-24T00:42:17;2.75;;;1.30;;
55409;SDS011;41279;43.546;16.426;2022-11-24T00:44:43;2.08;;;1.25;;
55409;SDS011;41279;43.546;16.426;2022-11-24T00:47:08;5.80;;;1.90;;
55409;SDS011;41279;43.546;16.426;2022-11-24T00:49:33;2.72;;;1.40;;
55409;SDS011;41279;43.546;16.426;2022-11-24T00:52:00;2.85;;;1.40;;
55409;SDS011;41279;43.546;16.426;2022-11-24T00:54:25;2.28;;;1.35;;
55409;SDS011;41279;43.546;16.426;2022-11-24T00:56:50;2.17;;;1.30;;
55409;SDS011;41279;43.546;16.426;2022-11-24T00:59:16;1.77;;;1.08;;
55409;SDS011;41279;43.546;16.426;2022-11-24T01:01:41;3.25;;;1.30;;
55409;SDS011;41279;43.546;16.426;2022-11-24T01:04:07;1.30;;;0.93;;
55409;SDS011;41279;43.546;16.426;2022-11-24T01:06:38;1.15;;;1.00;;
55409;SDS011;41279;43.546;16.426;2022-11-24T01:09:10;1.17;;;0.90;;
55409;SDS011;41279;43.546;16.426;2022-11-24T01:11:36;1.73;;;1.20;;
55409;SDS011;41279;43.546;16.426;2022-11-24T01:14:23;2.30;;;1.33;;
55409;SDS011;41279;43.546;16.426;2022-11-24T01:16:49;1.30;;;0.90;;
55409;SDS011;41279;43.546;16.426;2022-11-24T01:19:15;2.20;;;1.20;;
55409;SDS011;41279;43.546;16.426;2022-11-24T01:21:40;2.47;;;1.30;;
55409;SDS011;41279;43.546;16.426;2022-11-24T01:24:06;1.73;;;1.23;;
55409;SDS011;41279;43.546;16.426;2022-11-24T01:26:31;2.95;;;1.40;;
55409;SDS011;41279;43.546;16.426;2022-11-24T01:28:56;2.10;;;1.20;;
55409;SDS011;41279;43.546;16.426;2022-11-24T01:31:22;2.45;;;1.38;;
55409;SDS011;41279;43.546;16.426;2022-11-24T01:33:49;2.17;;;1.30;;
55409;SDS011;41279;43.546;16.426;2022-11-24T01:36:14;3.30;;;1.60;;
55409;SDS011;41279;43.546;16.426;2022-11-24T01:38:39;2.60;;;1.52;;
55409;SDS011;41279;43.546;16.426;2022-11-24T01:41:13;2.83;;;1.35;;
55409;SDS011;41279;43.546;16.426;2022-11-24T01:43:41;3.03;;;1.58;;
55409;SDS011;41279;43.546;16.426;2022-11-24T01:46:26;4.38;;;1.48;;
55409;SDS011;41279;43.546;16.426;2022-11-24T01:51:29;3.45;;;1.40;;
55409;SDS011;41279;43.546;16.426;2022-11-24T01:54:00;2.60;;;1.45;;
55409;SDS011;41279;43.546;16.426;2022-11-24T01:56:39;2.10;;;1.25;;
55409;SDS011;41279;43.546;16.426;2022-11-24T01:59:07;4.13;;;1.80;;
55409;SDS011;41279;43.546;16.426;2022-11-24T02:01:36;3.17;;;1.50;;
55409;SDS011;41279;43.546;16.426;2022-11-24T02:04:02;3.40;;;1.35;;
55409;SDS011;41279;43.546;16.426;2022-11-24T02:06:30;3.22;;;1.70;;
55409;SDS011;41279;43.546;16.426;2022-11-24T02:09:07;1.10;;;0.95;;
55409;SDS011;41279;43.546;16.426;2022-11-24T02:11:37;1.52;;;1.00;;
55409;SDS011;41279;43.546;16.426;2022-11-24T02:14:05;4.20;;;1.20;;
55409;SDS011;41279;43.546;16.426;2022-11-24T02:16:33;1.63;;;1.10;;
55409;SDS011;41279;43.546;16.426;2022-11-24T02:18:59;1.73;;;1.10;;
55409;SDS011;41279;43.546;16.426;2022-11-24T02:21:25;1.75;;;1.15;;
55409;SDS011;41279;43.546;16.426;2022-11-24T02:23:57;2.33;;;1.25;;
55409;SDS011;41279;43.546;16.426;2022-11-24T02:26:35;1.70;;;1.20;;
55409;SDS011;41279;43.546;16.426;2022-11-24T02:29:04;1.75;;;1.10;;
55409;SDS011;41279;43.546;16.426;2022-11-24T02:31:30;1.88;;;1.08;;
55409;SDS011;41279;43.546;16.426;2022-11-24T02:33:56;2.42;;;1.20;;
55409;SDS011;41279;43.546;16.426;2022-11-24T02:36:22;2.22;;;1.40;;
55409;SDS011;41279;43.546;16.426;2022-11-24T02:38:47;2.30;;;1.40;;
55409;SDS011;41279;43.546;16.426;2022-11-24T02:41:14;1.92;;;1.20;;
55409;SDS011;41279;43.546;16.426;2022-11-24T02:43:45;1.85;;;1.30;;
55409;SDS011;41279;43.546;16.426;2022-11-24T02:46:15;2.08;;;1.30;;
55409;SDS011;41279;43.546;16.426;2022-11-24T02:48:41;2.65;;;1.27;;
55409;SDS011;41279;43.546;16.426;2022-11-24T02:51:06;3.88;;;1.40;;
55409;SDS011;41279;43.546;16.426;2022-11-24T02:53:32;3.85;;;1.40;;
55409;SDS011;41279;43.546;16.426;2022-11-24T02:55:57;2.53;;;1.48;;
55409;SDS011;41279;43.546;16.426;2022-11-24T02:58:22;2.42;;;1.35;;
55409;SDS011;41279;43.546;16.426;2022-11-24T03:00:48;2.38;;;1.45;;
55409;SDS011;41279;43.546;16.426;2022-11-24T03:03:13;2.00;;;1.25;;
55409;SDS011;41279;43.546;16.426;2022-11-24T03:05:38;1.92;;;1.27;;
55409;SDS011;41279;43.546;16.426;2022-11-24T03:08:04;3.92;;;1.27;;
55409;SDS011;41279;43.546;16.426;2022-11-24T03:10:29;3.20;;;1.40;;
55409;SDS011;41279;43.546;16.426;2022-11-24T03:12:55;2.00;;;1.17;;
55409;SDS011;41279;43.546;16.426;2022-11-24T03:15:21;3.65;;;1.25;;
55409;SDS011;41279;43.546;16.426;2022-11-24T03:17:47;4.85;;;1.55;;
55409;SDS011;41279;43.546;16.426;2022-11-24T03:20:13;2.78;;;1.38;;
55409;SDS011;41279;43.546;16.426;2022-11-24T03:22:38;8.60;;;3.70;;
55409;SDS011;41279;43.546;16.426;2022-11-24T03:25:04;5.47;;;2.45;;
55409;SDS011;41279;43.546;16.426;2022-11-24T03:27:30;3.20;;;1.67;;
55409;SDS011;41279;43.546;16.426;2022-11-24T03:29:55;3.15;;;1.50;;
55409;SDS011;41279;43.546;16.426;2022-11-24T03:32:21;3.35;;;1.50;;
55409;SDS011;41279;43.546;16.426;2022-11-24T03:34:46;5.43;;;2.05;;
55409;SDS011;41279;43.546;16.426;2022-11-24T03:37:12;2.60;;;1.40;;
55409;SDS011;41279;43.546;16.426;2022-11-24T03:39:37;3.63;;;1.80;;
55409;SDS011;41279;43.546;16.426;2022-11-24T03:42:03;4.30;;;1.90;;
55409;SDS011;41279;43.546;16.426;2022-11-24T03:44:28;3.58;;;1.70;;
55409;SDS011;41279;43.546;16.426;2022-11-24T03:46:53;2.30;;;1.40;;
55409;SDS011;41279;43.546;16.426;2022-11-24T03:49:19;2.40;;;1.30;;
55409;SDS011;41279;43.546;16.426;2022-11-24T03:51:44;2.17;;;1.25;;
55409;SDS011;41279;43.546;16.426;2022-11-24T03:54:09;2.05;;;1.35;;
55409;SDS011;41279;43.546;16.426;2022-11-24T03:56:35;4.07;;;1.40;;
55409;SDS011;41279;43.546;16.426;2022-11-24T03:59:01;4.65;;;1.55;;
55409;SDS011;41279;43.546;16.426;2022-11-24T04:01:26;3.08;;;1.45;;
55409;SDS011;41279;43.546;16.426;2022-11-24T04:03:52;6.05;;;2.90;;
55409;SDS011;41279;43.546;16.426;2022-11-24T04:06:17;2.25;;;1.20;;
55409;SDS011;41279;43.546;16.426;2022-11-24T04:08:42;4.03;;;1.75;;
55409;SDS011;41279;43.546;16.426;2022-11-24T04:11:08;3.85;;;1.50;;
55409;SDS011;41279;43.546;16.426;2022-11-24T04:13:53;2.63;;;1.40;;
55409;SDS011;41279;43.546;16.426;2022-11-24T04:16:18;1.58;;;1.00;;
55409;SDS011;41279;43.546;16.426;2022-11-24T04:18:43;2.13;;;1.30;;
55409;SDS011;41279;43.546;16.426;2022-11-24T04:21:09;2.75;;;1.10;;
55409;SDS011;41279;43.546;16.426;2022-11-24T04:23:34;2.53;;;1.10;;
55409;SDS011;41279;43.546;16.426;2022-11-24T04:26:00;0.98;;;0.90;;
55409;SDS011;41279;43.546;16.426;2022-11-24T04:28:25;1.00;;;0.90;;
55409;SDS011;41279;43.546;16.426;2022-11-24T04:30:50;1.73;;;1.00;;
55409;SDS011;41279;43.546;16.426;2022-11-24T04:33:16;1.30;;;0.90;;
55409;SDS011;41279;43.546;16.426;2022-11-24T04:35:41;2.15;;;1.20;;
55409;SDS011;41279;43.546;16.426;2022-11-24T04:38:06;2.65;;;1.33;;
55409;SDS011;41279;43.546;16.426;2022-11-24T04:40:32;2.25;;;1.30;;
55409;SDS011;41279;43.546;16.426;2022-11-24T04:42:57;2.50;;;1.30;;
55409;SDS011;41279;43.546;16.426;2022-11-24T04:45:22;4.40;;;1.38;;
55409;SDS011;41279;43.546;16.426;2022-11-24T04:47:48;2.38;;;1.20;;
55409;SDS011;41279;43.546;16.426;2022-11-24T04:50:13;1.77;;;1.10;;
55409;SDS011;41279;43.546;16.426;2022-11-24T04:52:39;3.22;;;1.17;;
55409;SDS011;41279;43.546;16.426;2022-11-24T04:55:04;1.73;;;1.10;;
55409;SDS011;41279;43.546;16.426;2022-11-24T04:57:30;2.05;;;1.00;;
55409;SDS011;41279;43.546;16.426;2022-11-24T04:59:55;3.08;;;1.23;;
55409;SDS011;41279;43.546;16.426;2022-11-24T05:02:21;2.05;;;1.20;;
55409;SDS011;41279;43.546;16.426;2022-11-24T05:04:48;1.83;;;1.20;;
55409;SDS011;41279;43.546;16.426;2022-11-24T05:07:14;3.25;;;1.20;;
55409;SDS011;41279;43.546;16.426;2022-11-24T05:09:40;1.10;;;0.85;;
55409;SDS011;41279;43.546;16.426;2022-11-24T05:12:24;2.90;;;1.30;;
55409;SDS011;41279;43.546;16.426;2022-11-24T05:14:54;2.22;;;1.30;;
55409;SDS011;41279;43.546;16.426;2022-11-24T05:17:20;1.77;;;1.27;;
55409;SDS011;41279;43.546;16.426;2022-11-24T05:19:46;6.35;;;1.75;;
55409;SDS011;41279;43.546;16.426;2022-11-24T05:22:11;3.15;;;1.50;;
55409;SDS011;41279;43.546;16.426;2022-11-24T05:24:36;3.15;;;1.75;;
55409;SDS011;41279;43.546;16.426;2022-11-24T05:27:01;2.75;;;1.50;;
55409;SDS011;41279;43.546;16.426;2022-11-24T05:29:27;2.55;;;1.50;;
55409;SDS011;41279;43.546;16.426;2022-11-24T05:31:52;2.72;;;1.50;;
55409;SDS011;41279;43.546;16.426;2022-11-24T05:34:17;3.53;;;1.50;;
55409;SDS011;41279;43.546;16.426;2022-11-24T05:36:43;3.25;;;1.70;;
55409;SDS011;41279;43.546;16.426;2022-11-24T05:39:18;2.97;;;1.70;;
55409;SDS011;41279;43.546;16.426;2022-11-24T05:41:44;3.42;;;1.70;;
55409;SDS011;41279;43.546;16.426;2022-11-24T05:44:09;3.85;;;1.80;;
55409;SDS011;41279;43.546;16.426;2022-11-24T05:46:35;3.40;;;1.95;;
55409;SDS011;41279;43.546;16.426;2022-11-24T05:49:00;6.22;;;2.28;;
55409;SDS011;41279;43.546;16.426;2022-11-24T05:51:25;6.82;;;1.95;;
55409;SDS011;41279;43.546;16.426;2022-11-24T05:53:51;5.88;;;3.40;;
55409;SDS011;41279;43.546;16.426;2022-11-24T05:56:16;5.57;;;2.30;;
55409;SDS011;41279;43.546;16.426;2022-11-24T05:58:42;6.03;;;2.20;;
55409;SDS011;41279;43.546;16.426;2022-11-24T06:01:07;7.93;;;2.28;;
55409;SDS011;41279;43.546;16.426;2022-11-24T06:03:33;4.65;;;1.90;;
55409;SDS011;41279;43.546;16.426;2022-11-24T06:05:58;4.47;;;1.70;;
55409;SDS011;41279;43.546;16.426;2022-11-24T06:08:23;4.63;;;1.98;;
55409;SDS011;41279;43.546;16.426;2022-11-24T06:10:49;4.57;;;2.05;;
55409;SDS011;41279;43.546;16.426;2022-11-24T06:13:14;3.80;;;1.90;;
55409;SDS011;41279;43.546;16.426;2022-11-24T06:15:39;8.52;;;3.03;;
55409;SDS011;41279;43.546;16.426;2022-11-24T06:18:05;5.82;;;3.10;;
55409;SDS011;41279;43.546;16.426;2022-11-24T06:20:30;5.00;;;2.25;;
55409;SDS011;41279;43.546;16.426;2022-11-24T06:22:56;5.10;;;1.65;;
55409;SDS011;41279;43.546;16.426;2022-11-24T06:25:22;4.82;;;2.35;;
55409;SDS011;41279;43.546;16.426;2022-11-24T06:27:48;4.68;;;2.08;;
55409;SDS011;41279;43.546;16.426;2022-11-24T06:30:13;3.92;;;1.80;;
55409;SDS011;41279;43.546;16.426;2022-11-24T06:32:39;4.82;;;2.33;;
55409;SDS011;41279;43.546;16.426;2022-11-24T06:35:08;14.15;;;6.10;;
55409;SDS011;41279;43.546;16.426;2022-11-24T06:37:37;5.63;;;2.25;;
55409;SDS011;41279;43.546;16.426;2022-11-24T06:40:03;9.60;;;2.92;;
55409;SDS011;41279;43.546;16.426;2022-11-24T06:42:36;7.95;;;2.72;;
55409;SDS011;41279;43.546;16.426;2022-11-24T06:45:02;6.25;;;2.00;;
55409;SDS011;41279;43.546;16.426;2022-11-24T06:47:27;5.75;;;1.80;;
55409;SDS011;41279;43.546;16.426;2022-11-24T06:49:53;12.70;;;5.10;;
55409;SDS011;41279;43.546;16.426;2022-11-24T06:52:18;12.20;;;5.43;;
55409;SDS011;41279;43.546;16.426;2022-11-24T06:54:43;11.32;;;3.60;;
55409;SDS011;41279;43.546;16.426;2022-11-24T06:57:09;5.55;;;2.45;;
55409;SDS011;41279;43.546;16.426;2022-11-24T06:59:34;8.73;;;3.38;;
55409;SDS011;41279;43.546;16.426;2022-11-24T07:01:59;4.25;;;1.92;;
55409;SDS011;41279;43.546;16.426;2022-11-24T07:04:31;5.93;;;1.80;;
55409;SDS011;41279;43.546;16.426;2022-11-24T07:06:57;5.20;;;2.08;;
55409;SDS011;41279;43.546;16.426;2022-11-24T07:09:29;5.97;;;2.10;;
55409;SDS011;41279;43.546;16.426;2022-11-24T07:11:54;3.70;;;1.92;;
55409;SDS011;41279;43.546;16.426;2022-11-24T07:14:20;2.67;;;1.38;;
55409;SDS011;41279;43.546;16.426;2022-11-24T07:16:46;3.40;;;1.40;;
55409;SDS011;41279;43.546;16.426;2022-11-24T07:19:11;5.57;;;1.60;;
55409;SDS011;41279;43.546;16.426;2022-11-24T07:21:43;4.07;;;1.80;;
55409;SDS011;41279;43.546;16.426;2022-11-24T07:24:15;7.65;;;1.60;;
55409;SDS011;41279;43.546;16.426;2022-11-24T07:26:40;5.18;;;1.50;;
55409;SDS011;41279;43.546;16.426;2022-11-24T07:29:06;3.58;;;1.20;;
55409;SDS011;41279;43.546;16.426;2022-11-24T07:31:31;3.78;;;1.23;;
55409;SDS011;41279;43.546;16.426;2022-11-24T07:33:57;2.13;;;1.27;;
55409;SDS011;41279;43.546;16.426;2022-11-24T07:36:22;3.05;;;1.30;;
55409;SDS011;41279;43.546;16.426;2022-11-24T07:38:48;2.28;;;1.10;;
55409;SDS011;41279;43.546;16.426;2022-11-24T07:41:14;3.67;;;1.20;;
55409;SDS011;41279;43.546;16.426;2022-11-24T07:43:41;2.35;;;1.00;;
55409;SDS011;41279;43.546;16.426;2022-11-24T07:46:08;1.63;;;1.02;;
55409;SDS011;41279;43.546;16.426;2022-11-24T07:48:35;11.52;;;2.58;;
55409;SDS011;41279;43.546;16.426;2022-11-24T07:51:01;4.60;;;1.40;;
55409;SDS011;41279;43.546;16.426;2022-11-24T07:53:28;2.08;;;1.15;;
55409;SDS011;41279;43.546;16.426;2022-11-24T07:55:54;3.78;;;1.40;;
55409;SDS011;41279;43.546;16.426;2022-11-24T07:58:23;5.47;;;1.77;;
55409;SDS011;41279;43.546;16.426;2022-11-24T08:00:49;3.03;;;1.33;;
55409;SDS011;41279;43.546;16.426;2022-11-24T08:03:14;2.97;;;1.60;;
55409;SDS011;41279;43.546;16.426;2022-11-24T08:05:39;4.35;;;1.42;;
55409;SDS011;41279;43.546;16.426;2022-11-24T08:08:05;5.70;;;1.50;;
55409;SDS011;41279;43.546;16.426;2022-11-24T08:10:30;2.53;;;1.35;;
55409;SDS011;41279;43.546;16.426;2022-11-24T08:12:59;1.73;;;1.20;;
55409;SDS011;41279;43.546;16.426;2022-11-24T08:15:25;3.10;;;1.50;;
55409;SDS011;41279;43.546;16.426;2022-11-24T08:17:51;4.22;;;1.50;;
55409;SDS011;41279;43.546;16.426;2022-11-24T08:20:16;5.22;;;1.40;;
55409;SDS011;41279;43.546;16.426;2022-11-24T08:22:42;5.53;;;1.98;;
55409;SDS011;41279;43.546;16.426;2022-11-24T08:25:07;4.68;;;2.35;;
55409;SDS011;41279;43.546;16.426;2022-11-24T08:27:33;5.75;;;1.45;;
55409;SDS011;41279;43.546;16.426;2022-11-24T08:29:58;5.22;;;1.50;;
55409;SDS011;41279;43.546;16.426;2022-11-24T08:32:23;5.22;;;1.50;;
55409;SDS011;41279;43.546;16.426;2022-11-24T08:34:49;6.20;;;1.70;;
55409;SDS011;41279;43.546;16.426;2022-11-24T08:37:14;6.85;;;1.40;;
55409;SDS011;41279;43.546;16.426;2022-11-24T08:39:39;4.93;;;1.42;;
55409;SDS011;41279;43.546;16.426;2022-11-24T08:42:05;4.97;;;1.60;;
55409;SDS011;41279;43.546;16.426;2022-11-24T08:44:30;3.25;;;1.65;;
55409;SDS011;41279;43.546;16.426;2022-11-24T08:46:56;2.58;;;1.17;;
55409;SDS011;41279;43.546;16.426;2022-11-24T08:49:21;2.75;;;1.25;;
55409;SDS011;41279;43.546;16.426;2022-11-24T08:51:46;5.28;;;1.50;;
55409;SDS011;41279;43.546;16.426;2022-11-24T08:54:13;3.92;;;1.73;;
55409;SDS011;41279;43.546;16.426;2022-11-24T08:56:42;2.92;;;1.40;;
55409;SDS011;41279;43.546;16.426;2022-11-24T08:59:10;4.90;;;1.50;;
55409;SDS011;41279;43.546;16.426;2022-11-24T09:01:37;12.48;;;1.60;;
55409;SDS011;41279;43.546;16.426;2022-11-24T09:04:03;2.97;;;1.30;;
55409;SDS011;41279;43.546;16.426;2022-11-24T09:06:28;1.73;;;1.10;;
55409;SDS011;41279;43.546;16.426;2022-11-24T09:08:57;2.15;;;1.17;;
55409;SDS011;41279;43.546;16.426;2022-11-24T09:11:24;2.63;;;1.55;;
55409;SDS011;41279;43.546;16.426;2022-11-24T09:13:50;2.97;;;1.08;;
55409;SDS011;41279;43.546;16.426;2022-11-24T09:16:18;2.92;;;1.42;;
55409;SDS011;41279;43.546;16.426;2022-11-24T09:18:45;1.70;;;1.10;;
55409;SDS011;41279;43.546;16.426;2022-11-24T09:23:44;2.05;;;0.98;;
55409;SDS011;41279;43.546;16.426;2022-11-24T09:26:13;5.18;;;2.08;;
55409;SDS011;41279;43.546;16.426;2022-11-24T09:28:41;3.00;;;1.30;;
55409;SDS011;41279;43.546;16.426;2022-11-24T09:31:07;2.45;;;1.00;;
55409;SDS011;41279;43.546;16.426;2022-11-24T09:33:35;1.05;;;0.88;;
55409;SDS011;41279;43.546;16.426;2022-11-24T09:36:02;3.40;;;1.08;;
55409;SDS011;41279;43.546;16.426;2022-11-24T09:38:27;3.17;;;1.30;;
55409;SDS011;41279;43.546;16.426;2022-11-24T09:40:53;1.25;;;1.00;;
55409;SDS011;41279;43.546;16.426;2022-11-24T09:43:22;3.80;;;1.60;;
55409;SDS011;41279;43.546;16.426;2022-11-24T09:46:07;2.15;;;1.10;;
55409;SDS011;41279;43.546;16.426;2022-11-24T09:48:41;2.92;;;1.20;;
55409;SDS011;41279;43.546;16.426;2022-11-24T09:51:12;2.42;;;1.23;;
55409;SDS011;41279;43.546;16.426;2022-11-24T09:53:55;3.00;;;1.15;;
55409;SDS011;41279;43.546;16.426;2022-11-24T09:56:27;1.50;;;1.00;;
55409;SDS011;41279;43.546;16.426;2022-11-24T09:59:00;3.58;;;1.25;;
55409;SDS011;41279;43.546;16.426;2022-11-24T10:03:55;2.83;;;1.60;;
55409;SDS011;41279;43.546;16.426;2022-11-24T10:06:25;4.25;;;2.15;;
55409;SDS011;41279;43.546;16.426;2022-11-24T10:09:02;1.88;;;1.10;;
55409;SDS011;41279;43.546;16.426;2022-11-24T10:11:38;6.90;;;2.75;;
55409;SDS011;41279;43.546;16.426;2022-11-24T10:20:26;5.18;;;1.80;;
55409;SDS011;41279;43.546;16.426;2022-11-24T10:25:56;2.88;;;1.50;;
55409;SDS011;41279;43.546;16.426;2022-11-24T10:28:43;2.13;;;1.20;;
55409;SDS011;41279;43.546;16.426;2022-11-24T10:31:16;3.45;;;1.42;;
55409;SDS011;41279;43.546;16.426;2022-11-24T10:33:43;3.55;;;1.67;;
55409;SDS011;41279;43.546;16.426;2022-11-24T10:36:11;4.07;;;1.52;;
55409;SDS011;41279;43.546;16.426;2022-11-24T10:38:51;4.40;;;1.40;;
55409;SDS011;41279;43.546;16.426;2022-11-24T10:44:13;4.85;;;1.70;;
55409;SDS011;41279;43.546;16.426;2022-11-24T10:46:40;5.40;;;1.90;;
55409;SDS011;41279;43.546;16.426;2022-11-24T10:49:06;3.53;;;1.77;;
55409;SDS011;41279;43.546;16.426;2022-11-24T10:54:18;3.72;;;1.60;;
55409;SDS011;41279;43.546;16.426;2022-11-24T10:56:46;4.70;;;2.13;;
55409;SDS011;41279;43.546;16.426;2022-11-24T10:59:19;2.30;;;1.40;;
55409;SDS011;41279;43.546;16.426;2022-11-24T11:01:46;7.28;;;3.42;;
55409;SDS011;41279;43.546;16.426;2022-11-24T11:04:45;3.53;;;1.60;;
55409;SDS011;41279;43.546;16.426;2022-11-24T11:07:07;1.98;;;1.10;;
55409;SDS011;41279;43.546;16.426;2022-11-24T11:09:40;3.03;;;1.60;;
55409;SDS011;41279;43.546;16.426;2022-11-24T11:12:09;2.80;;;1.33;;
55409;SDS011;41279;43.546;16.426;2022-11-24T11:14:36;2.05;;;1.20;;
55409;SDS011;41279;43.546;16.426;2022-11-24T11:17:02;2.28;;;1.10;;
55409;SDS011;41279;43.546;16.426;2022-11-24T11:20:02;2.58;;;1.30;;
55409;SDS011;41279;43.546;16.426;2022-11-24T11:22:29;2.88;;;1.50;;
55409;SDS011;41279;43.546;16.426;2022-11-24T11:25:01;3.80;;;1.45;;
55409;SDS011;41279;43.546;16.426;2022-11-24T11:27:35;2.63;;;1.05;;
55409;SDS011;41279;43.546;16.426;2022-11-24T11:32:52;1.83;;;1.15;;
55409;SDS011;41279;43.546;16.426;2022-11-24T11:35:25;2.55;;;1.30;;
55409;SDS011;41279;43.546;16.426;2022-11-24T11:37:53;2.33;;;1.30;;
55409;SDS011;41279;43.546;16.426;2022-11-24T11:40:23;1.63;;;1.27;;
55409;SDS011;41279;43.546;16.426;2022-11-24T11:42:54;1.92;;;1.02;;
55409;SDS011;41279;43.546;16.426;2022-11-24T11:45:48;1.30;;;1.00;;
55409;SDS011;41279;43.546;16.426;2022-11-24T11:48:25;2.97;;;1.40;;
55409;SDS011;41279;43.546;16.426;2022-11-24T11:53:47;1.30;;;1.00;;
55409;SDS011;41279;43.546;16.426;2022-11-24T12:10:06;3.17;;;1.30;;
55409;SDS011;41279;43.546;16.426;2022-11-24T12:12:42;2.67;;;1.10;;
55409;SDS011;41279;43.546;16.426;2022-11-24T12:17:51;2.25;;;1.40;;
55409;SDS011;41279;43.546;16.426;2022-11-24T12:25:46;0.93;;;0.83;;
55409;SDS011;41279;43.546;16.426;2022-11-24T12:34:26;2.22;;;1.08;;
55409;SDS011;41279;43.546;16.426;2022-11-24T12:50:28;3.72;;;1.23;;
55409;SDS011;41279;43.546;16.426;2022-11-24T12:53:01;2.63;;;1.50;;
55409;SDS011;41279;43.546;16.426;2022-11-24T12:55:30;1.50;;;1.17;;
55409;SDS011;41279;43.546;16.426;2022-11-24T13:00:36;2.20;;;1.20;;
55409;SDS011;41279;43.546;16.426;2022-11-24T13:08:40;2.22;;;1.00;;
55409;SDS011;41279;43.546;16.426;2022-11-24T13:16:46;5.72;;;2.85;;
55409;SDS011;41279;43.546;16.426;2022-11-24T13:19:24;1.60;;;1.10;;
55409;SDS011;41279;43.546;16.426;2022-11-24T13:21:58;1.83;;;1.13;;
55409;SDS011;41279;43.546;16.426;2022-11-24T13:24:26;1.67;;;1.10;;
55409;SDS011;41279;43.546;16.426;2022-11-24T13:37:03;1.55;;;1.10;;
55409;SDS011;41279;43.546;16.426;2022-11-24T13:43:20;1.92;;;1.10;;
55409;SDS011;41279;43.546;16.426;2022-11-24T13:58:39;2.50;;;1.15;;
55409;SDS011;41279;43.546;16.426;2022-11-24T14:01:11;1.50;;;0.80;;
55409;SDS011;41279;43.546;16.426;2022-11-24T14:03:58;3.50;;;1.23;;
55409;SDS011;41279;43.546;16.426;2022-11-24T14:09:00;2.53;;;1.33;;
55409;SDS011;41279;43.546;16.426;2022-11-24T14:14:42;1.98;;;1.10;;
55409;SDS011;41279;43.546;16.426;2022-11-24T14:19:39;2.90;;;1.48;;
55409;SDS011;41279;43.546;16.426;2022-11-24T14:22:39;4.93;;;1.70;;
55409;SDS011;41279;43.546;16.426;2022-11-24T14:25:03;2.53;;;1.27;;
55409;SDS011;41279;43.546;16.426;2022-11-24T14:27:30;2.28;;;1.20;;
55409;SDS011;41279;43.546;16.426;2022-11-24T14:29:59;4.38;;;1.92;;
55409;SDS011;41279;43.546;16.426;2022-11-24T14:32:26;6.35;;;2.08;;
55409;SDS011;41279;43.546;16.426;2022-11-24T14:34:52;4.80;;;2.05;;
55409;SDS011;41279;43.546;16.426;2022-11-24T14:37:18;3.10;;;1.55;;
55409;SDS011;41279;43.546;16.426;2022-11-24T14:39:44;4.38;;;1.98;;
55409;SDS011;41279;43.546;16.426;2022-11-24T14:42:23;6.57;;;2.92;;
55409;SDS011;41279;43.546;16.426;2022-11-24T14:47:21;9.88;;;4.25;;
55409;SDS011;41279;43.546;16.426;2022-11-24T14:52:47;3.42;;;1.73;;
55409;SDS011;41279;43.546;16.426;2022-11-24T14:55:27;2.55;;;1.50;;
55409;SDS011;41279;43.546;16.426;2022-11-24T14:57:55;3.15;;;1.40;;
55409;SDS011;41279;43.546;16.426;2022-11-24T15:02:53;6.15;;;2.58;;
55409;SDS011;41279;43.546;16.426;2022-11-24T15:05:20;9.20;;;3.63;;
55409;SDS011;41279;43.546;16.426;2022-11-24T15:07:48;9.23;;;3.63;;
55409;SDS011;41279;43.546;16.426;2022-11-24T15:10:31;4.75;;;2.35;;
55409;SDS011;41279;43.546;16.426;2022-11-24T15:12:58;6.38;;;2.55;;
55409;SDS011;41279;43.546;16.426;2022-11-24T15:15:28;6.45;;;3.00;;
55409;SDS011;41279;43.546;16.426;2022-11-24T15:17:57;12.13;;;4.50;;
55409;SDS011;41279;43.546;16.426;2022-11-24T15:20:31;15.48;;;5.43;;
55409;SDS011;41279;43.546;16.426;2022-11-24T15:25:52;10.38;;;4.40;;
55409;SDS011;41279;43.546;16.426;2022-11-24T15:28:18;6.57;;;3.60;;
55409;SDS011;41279;43.546;16.426;2022-11-24T15:30:50;6.45;;;3.08;;
55409;SDS011;41279;43.546;16.426;2022-11-24T15:33:17;6.40;;;2.75;;
55409;SDS011;41279;43.546;16.426;2022-11-24T15:35:43;5.60;;;1.90;;
55409;SDS011;41279;43.546;16.426;2022-11-24T15:38:09;4.88;;;2.40;;
55409;SDS011;41279;43.546;16.426;2022-11-24T15:40:36;3.60;;;2.08;;
55409;SDS011;41279;43.546;16.426;2022-11-24T15:43:05;3.20;;;1.60;;
55409;SDS011;41279;43.546;16.426;2022-11-24T15:45:47;4.90;;;1.70;;
55409;SDS011;41279;43.546;16.426;2022-11-24T15:48:13;3.13;;;1.48;;
55409;SDS011;41279;43.546;16.426;2022-11-24T15:50:38;4.03;;;1.80;;
55409;SDS011;41279;43.546;16.426;2022-11-24T15:53:03;3.97;;;2.10;;
55409;SDS011;41279;43.546;16.426;2022-11-24T15:55:30;4.45;;;1.85;;
55409;SDS011;41279;43.546;16.426;2022-11-24T15:57:56;4.60;;;2.13;;
55409;SDS011;41279;43.546;16.426;2022-11-24T16:00:22;5.93;;;2.78;;
55409;SDS011;41279;43.546;16.426;2022-11-24T16:02:48;5.18;;;2.00;;
55409;SDS011;41279;43.546;16.426;2022-11-24T16:05:14;4.38;;;1.90;;
55409;SDS011;41279;43.546;16.426;2022-11-24T16:07:40;5.40;;;2.20;;
55409;SDS011;41279;43.546;16.426;2022-11-24T16:10:09;5.15;;;2.08;;
55409;SDS011;41279;43.546;16.426;2022-11-24T16:12:42;3.63;;;1.98;;
55409;SDS011;41279;43.546;16.426;2022-11-24T16:15:07;6.30;;;2.20;;
55409;SDS011;41279;43.546;16.426;2022-11-24T16:17:33;4.68;;;2.00;;
55409;SDS011;41279;43.546;16.426;2022-11-24T16:19:58;5.65;;;2.20;;
55409;SDS011;41279;43.546;16.426;2022-11-24T16:22:24;6.13;;;2.53;;
55409;SDS011;41279;43.546;16.426;2022-11-24T16:24:49;13.00;;;3.75;;
55409;SDS011;41279;43.546;16.426;2022-11-24T16:27:14;11.00;;;3.70;;
55409;SDS011;41279;43.546;16.426;2022-11-24T16:29:40;9.88;;;3.88;;
55409;SDS011;41279;43.546;16.426;2022-11-24T16:32:05;7.38;;;3.22;;
55409;SDS011;41279;43.546;16.426;2022-11-24T16:34:31;8.40;;;2.70;;
55409;SDS011;41279;43.546;16.426;2022-11-24T16:36:56;7.97;;;2.13;;
55409;SDS011;41279;43.546;16.426;2022-11-24T16:39:21;5.47;;;2.10;;
55409;SDS011;41279;43.546;16.426;2022-11-24T16:41:47;4.10;;;2.22;;
55409;SDS011;41279;43.546;16.426;2022-11-24T16:44:12;11.63;;;2.72;;
55409;SDS011;41279;43.546;16.426;2022-11-24T16:46:37;4.25;;;1.80;;